Time;durP1;ratioP1;P1;durP2;ratioP2;P2;SDS_P1;SDS_P2;PMS_P1;PMS_P2;Temp;Humidity;BMP_temperature;BMP_pressure;BME280_temperature;BME280_humidity;BME280_pressure;Samples;Min_cycle;Max_cycle;Signal;HPM_P1;HPM_P2
2021/11/16 00:00:17;;;;;;;24.80;10.87;;;;;;;-2.30;100.00;102262.04;1596833;89;21113;-72
2021/11/16 00:02:44;;;;;;;26.93;12.43;;;;;;;-2.33;100.00;102259.45;1637228;88;21151;-73
2021/11/16 00:05:11;;;;;;;54.53;35.40;;;;;;;-2.34;100.00;102261.66;1646937;86;21063;-72
2021/11/16 00:07:39;;;;;;;27.13;13.43;;;;;;;-2.35;100.00;102253.31;1624030;87;21080;-73
2021/11/16 00:10:07;;;;;;;32.70;15.17;;;;;;;-2.37;100.00;102257.78;1646989;87;21092;-73
2021/11/16 00:12:34;;;;;;;42.60;19.17;;;;;;;-2.39;100.00;102255.16;1646879;87;21099;-72
2021/11/16 00:15:01;;;;;;;31.57;12.40;;;;;;;-2.41;100.00;102252.97;1661710;86;21163;-72
2021/11/16 00:17:29;;;;;;;30.70;11.30;;;;;;;-2.42;100.00;102249.06;1641414;86;21551;-74
2021/11/16 00:19:56;;;;;;;24.93;9.20;;;;;;;-2.46;100.00;102246.93;1676447;85;21010;-73
2021/11/16 00:22:23;;;;;;;10.70;4.63;;;;;;;-2.46;100.00;102246.93;1684799;85;21049;-73
2021/11/16 00:27:36;;;;;;;11.10;5.03;;;;;;;-2.49;100.00;102262.42;1659029;86;21076;-74
2021/11/16 00:30:05;;;;;;;12.13;4.83;;;;;;;-2.50;100.00;102255.83;1659008;86;21036;-73
2021/11/16 00:32:32;;;;;;;8.97;4.90;;;;;;;-2.52;100.00;102262.94;1658865;86;21250;-72
2021/11/16 00:34:59;;;;;;;9.33;4.30;;;;;;;-2.54;100.00;102265.61;1636596;86;21070;-71
2021/11/16 00:37:27;;;;;;;9.07;3.93;;;;;;;-2.56;100.00;102256.84;1633115;88;21574;-72
2021/11/16 00:40:01;;;;;;;11.13;4.23;;;;;;;-2.58;100.00;102256.00;1632808;88;21078;-73
2021/11/16 00:42:29;;;;;;;16.57;6.70;;;;;;;-2.58;100.00;102256.00;1633183;88;21042;-72
2021/11/16 00:44:56;;;;;;;10.03;5.20;;;;;;;-2.57;100.00;102255.53;1633038;88;21066;-73
2021/11/16 00:47:23;;;;;;;16.80;7.70;;;;;;;-2.58;100.00;102256.46;1633249;88;21065;-72
2021/11/16 00:49:53;;;;;;;10.83;5.90;;;;;;;-2.59;100.00;102262.65;1611500;88;21550;-73
2021/11/16 00:52:20;;;;;;;14.90;6.20;;;;;;;-2.58;100.00;102265.27;1633137;88;21554;-72
2021/11/16 00:54:47;;;;;;;11.07;4.83;;;;;;;-2.57;100.00;102260.83;1611373;88;21091;-74
2021/11/16 00:57:14;;;;;;;13.37;6.10;;;;;;;-2.57;100.00;102256.40;1633180;88;21094;-73
2021/11/16 00:59:41;;;;;;;14.10;5.03;;;;;;;-2.57;100.00;102255.53;1633174;88;21547;-72
2021/11/16 01:02:08;;;;;;;10.83;5.47;;;;;;;-2.59;100.00;102261.33;1628464;86;21068;-73
2021/11/16 01:04:37;;;;;;;17.43;7.20;;;;;;;-2.61;100.00;102259.16;1637906;86;21550;-72
2021/11/16 01:07:05;;;;;;;13.50;5.80;;;;;;;-2.63;100.00;102266.28;1659975;86;21109;-72
2021/11/16 01:09:33;;;;;;;13.73;5.90;;;;;;;-2.67;100.00;102265.47;1659651;86;21585;-73
2021/11/16 01:12:00;;;;;;;16.30;6.37;;;;;;;-2.70;100.00;102262.41;1637800;86;20970;-72
2021/11/16 01:14:26;;;;;;;11.87;5.37;;;;;;;-2.74;100.00;102260.74;1657936;85;21006;-73
2021/11/16 01:16:53;;;;;;;10.70;5.90;;;;;;;-2.76;100.00;102261.23;1690247;85;21014;-71
2021/11/16 01:19:20;;;;;;;12.63;6.87;;;;;;;-2.76;100.00;102253.72;1670552;85;21454;-73
2021/11/16 01:21:48;;;;;;;14.60;8.00;;;;;;;-2.76;100.00;102255.03;1690169;85;21053;-72
2021/11/16 01:24:16;;;;;;;31.00;22.67;;;;;;;-2.78;100.00;102259.07;1690042;85;21077;-72
2021/11/16 01:26:45;;;;;;;28.27;16.40;;;;;;;-2.78;100.00;102258.17;1690219;85;21050;-72
2021/11/16 01:29:13;;;;;;;22.00;12.27;;;;;;;-2.81;100.00;102254.29;1690132;85;21033;-72
2021/11/16 01:31:41;;;;;;;21.60;12.23;;;;;;;-2.84;100.00;102253.02;1690241;85;21530;-72
2021/11/16 01:34:10;;;;;;;22.57;13.40;;;;;;;-2.86;100.00;102250.39;1690853;85;21100;-71
2021/11/16 01:36:37;;;;;;;25.93;15.80;;;;;;;-2.86;100.00;102258.34;1694868;84;21066;-72
2021/11/16 01:39:04;;;;;;;21.30;11.57;;;;;;;-2.85;100.00;102264.07;1697625;84;21028;-71
2021/11/16 01:41:31;;;;;;;20.53;11.43;;;;;;;-2.89;100.00;102253.96;1697442;84;21101;-73
2021/11/16 01:44:00;;;;;;;22.07;12.60;;;;;;;-2.92;100.00;102244.78;1674866;84;21045;-73
2021/11/16 01:46:27;;;;;;;20.77;11.67;;;;;;;-2.93;100.00;102255.39;1674559;84;21085;-73
2021/11/16 01:48:55;;;;;;;34.13;20.60;;;;;;;-2.95;100.00;102255.88;1674778;84;21037;-72
2021/11/16 01:51:26;;;;;;;24.27;9.60;;;;;;;-2.98;100.00;102254.15;1697478;84;21581;-73
2021/11/16 01:54:01;;;;;;;20.20;8.70;;;;;;;-2.99;100.00;102256.82;1641736;86;21093;-71
2021/11/16 01:56:25;;;;;;;25.05;10.00;;;;;;;-3.01;100.00;102256.87;1661111;84;21104;-71
2021/11/16 01:58:53;;;;;;;57.97;23.27;;;;;;;-3.03;100.00;102257.33;1642100;86;21523;-72
2021/11/16 02:01:20;;;;;;;48.20;18.20;;;;;;;-3.02;100.00;102251.61;1664105;86;21129;-72
2021/11/16 02:03:47;;;;;;;74.13;28.40;;;;;;;-3.05;100.00;102248.55;1664364;86;21115;-72
2021/11/16 02:06:26;;;;;;;60.03;23.60;;;;;;;-3.05;100.00;102249.88;1664091;86;21109;-71
2021/11/16 02:08:55;;;;;;;70.50;40.27;;;;;;;-3.06;100.00;102243.72;1642173;86;21522;-72
2021/11/16 02:11:22;;;;;;;54.97;29.87;;;;;;;-3.08;100.00;102247.28;1663926;86;21153;-72
2021/11/16 02:13:50;;;;;;;45.30;20.87;;;;;;;-3.10;100.00;102242.05;1616633;88;21109;-72
2021/11/16 02:16:17;;;;;;;50.27;21.90;;;;;;;-3.12;100.00;102245.14;1603617;89;21163;-72
2021/11/16 02:18:44;;;;;;;42.17;17.33;;;;;;;-3.15;100.00;102242.58;1603760;89;21570;-71
2021/11/16 02:21:13;;;;;;;37.23;16.03;;;;;;;-3.17;100.00;102253.65;1603823;89;21070;-72
2021/11/16 02:23:42;;;;;;;27.53;11.10;;;;;;;-3.17;100.00;102252.33;1603780;89;21074;-72
2021/11/16 02:26:09;;;;;;;21.30;8.10;;;;;;;-3.19;100.00;102250.13;1603783;89;21611;-71
2021/11/16 02:28:37;;;;;;;18.63;8.17;;;;;;;-3.19;100.00;102253.23;1603782;89;21118;-71
2021/11/16 02:31:05;;;;;;;21.47;9.87;;;;;;;-3.21;100.00;102242.68;1603892;89;21102;-72
2021/11/16 02:33:32;;;;;;;21.50;9.70;;;;;;;-3.21;100.00;102242.68;1603888;89;21165;-73
2021/11/16 02:35:59;;;;;;;21.47;9.33;;;;;;;-3.20;100.00;102252.84;1604088;89;21535;-72
2021/11/16 02:38:26;;;;;;;22.87;11.67;;;;;;;-3.19;100.00;102262.50;1598979;90;21093;-72
2021/11/16 02:40:54;;;;;;;19.13;12.60;;;;;;;-3.20;100.00;102251.05;1598906;89;21544;-71
2021/11/16 02:43:22;;;;;;;24.03;15.10;;;;;;;-3.20;100.00;102251.52;1598791;90;21086;-72
2021/11/16 02:45:49;;;;;;;23.37;12.43;;;;;;;-3.23;100.00;102250.23;1599052;90;21035;-71
2021/11/16 02:48:16;;;;;;;27.93;15.13;;;;;;;-3.24;100.00;102257.28;1598902;90;21035;-71
2021/11/16 02:50:46;;;;;;;25.00;17.07;;;;;;;-3.26;100.00;102256.02;1616540;88;21097;-73
2021/11/16 02:53:13;;;;;;;34.70;18.10;;;;;;;-3.27;100.00;102246.31;1653827;86;21018;-72
2021/11/16 02:55:41;;;;;;;36.37;19.63;;;;;;;-3.30;100.00;102251.66;1653978;86;21036;-72
2021/11/16 02:58:08;;;;;;;38.87;20.77;;;;;;;-3.31;100.00;102249.03;1654073;86;21587;-72
2021/11/16 03:00:35;;;;;;;30.00;15.47;;;;;;;-3.34;100.00;102247.80;1629071;87;21138;-72
2021/11/16 03:03:02;;;;;;;18.97;8.17;;;;;;;-3.36;100.00;102240.34;1622679;88;21090;-72
2021/11/16 03:05:35;;;;;;;18.73;8.37;;;;;;;-3.39;100.00;102246.54;1622934;88;21066;-72
2021/11/16 03:08:25;;;;;;;20.73;9.47;;;;;;;-3.40;100.00;102253.17;1622571;87;21074;-72
2021/11/16 03:10:55;;;;;;;19.43;8.80;;;;;;;-3.41;100.00;102253.64;1623224;88;21105;-71
2021/11/16 03:13:24;;;;;;;17.63;6.40;;;;;;;-3.45;100.00;102244.88;1614834;89;21134;-72
2021/11/16 03:15:51;;;;;;;14.17;6.17;;;;;;;-3.47;100.00;102241.83;1648741;87;21541;-72
2021/11/16 03:18:18;;;;;;;17.43;6.93;;;;;;;-3.49;100.00;102240.55;1648735;87;21488;-72
2021/11/16 03:20:45;;;;;;;12.37;5.53;;;;;;;-3.50;100.00;102244.55;1648687;87;21108;-72
2021/11/16 03:23:15;;;;;;;12.53;5.50;;;;;;;-3.52;100.00;102245.89;1648261;87;21182;-72
2021/11/16 03:25:49;;;;;;;12.17;5.67;;;;;;;-3.52;100.00;102246.35;1649006;87;21081;-73
2021/11/16 03:28:12;;;;;;;14.63;5.50;;;;;;;-3.54;100.00;102246.38;1645763;87;21101;-72
2021/11/16 03:30:40;;;;;;;16.40;6.20;;;;;;;-3.56;100.00;102244.21;1648911;86;21034;-72
2021/11/16 03:33:07;;;;;;;13.33;5.80;;;;;;;-3.57;100.00;102242.91;1648666;87;21061;-71
2021/11/16 03:35:35;;;;;;;12.57;6.20;;;;;;;-3.59;100.00;102250.86;1637651;87;21145;-72
2021/11/16 03:38:06;;;;;;;16.73;7.50;;;;;;;-3.61;100.00;102248.70;1591104;90;21062;-72
2021/11/16 03:40:35;;;;;;;21.80;8.20;;;;;;;-3.63;100.00;102235.92;1586455;89;21146;-71
2021/11/16 03:43:03;;;;;;;32.07;12.70;;;;;;;-3.63;100.00;102238.57;1635694;88;21136;-72
2021/11/16 03:45:30;;;;;;;51.30;18.67;;;;;;;-3.67;100.00;102232.47;1608543;89;21452;-72
2021/11/16 03:47:57;;;;;;;27.30;11.27;;;;;;;-3.68;100.00;102235.16;1613192;88;21542;-72
2021/11/16 03:50:26;;;;;;;25.30;10.60;;;;;;;-3.72;100.00;102232.12;1591029;90;21117;-72
2021/11/16 03:52:56;;;;;;;22.70;9.57;;;;;;;-3.74;100.00;102231.28;1591030;90;21103;-71
2021/11/16 03:55:29;;;;;;;33.87;13.10;;;;;;;-3.77;100.00;102229.58;1591253;90;21081;-72
2021/11/16 03:57:58;;;;;;;41.37;16.50;;;;;;;-3.79;100.00;102238.41;1607723;88;21530;-72
2021/11/16 04:00:35;;;;;;;39.67;16.47;;;;;;;-3.83;100.00;102245.06;1608505;89;21098;-72
2021/11/16 04:03:02;;;;;;;52.80;20.57;;;;;;;-3.86;100.00;102242.92;1613030;88;21029;-71
2021/11/16 04:05:30;;;;;;;37.37;13.63;;;;;;;-3.88;100.00;102245.62;1591189;90;21115;-72
2021/11/16 04:07:57;;;;;;;45.20;18.23;;;;;;;-3.90;100.00;102247.84;1569578;90;21074;-71
2021/11/16 04:10:24;;;;;;;27.87;11.70;;;;;;;-3.90;100.00;102255.31;1603717;89;21076;-71
2021/11/16 04:12:51;;;;;;;19.53;8.00;;;;;;;-3.91;100.00;102262.84;1629721;88;21073;-71
2021/11/16 04:15:21;;;;;;;20.03;7.93;;;;;;;-3.92;100.00;102253.15;1614918;86;21033;-72
2021/11/16 04:17:50;;;;;;;15.00;7.07;;;;;;;-3.92;100.00;102249.64;1658891;86;21038;-72
2021/11/16 04:20:20;;;;;;;13.13;5.87;;;;;;;-3.94;100.00;102243.52;1638718;86;21527;-72
2021/11/16 04:22:47;;;;;;;15.10;6.60;;;;;;;-3.93;100.00;102250.52;1658749;86;21029;-72
2021/11/16 04:25:15;;;;;;;14.40;6.93;;;;;;;-3.94;100.00;102258.05;1658677;86;21094;-72
2021/11/16 04:27:42;;;;;;;23.67;10.23;;;;;;;-3.95;100.00;102253.64;1638457;86;21078;-73
2021/11/16 04:30:12;;;;;;;23.20;12.77;;;;;;;-3.95;100.00;102253.19;1638921;86;21058;-72
2021/11/16 04:32:38;;;;;;;28.03;16.40;;;;;;;-3.93;100.00;102254.06;1638645;86;21042;-71
2021/11/16 04:35:07;;;;;;;36.67;25.37;;;;;;;-3.93;100.00;102259.78;1662481;85;21081;-72
2021/11/16 04:37:34;;;;;;;61.50;50.77;;;;;;;-3.94;100.00;102262.88;1644003;86;21630;-73
2021/11/16 04:40:01;;;;;;;104.13;86.93;;;;;;;-3.93;100.00;102247.88;1643996;86;21061;-72
2021/11/16 04:42:29;;;;;;;132.33;106.83;;;;;;;-3.92;100.00;102251.83;1665916;86;21073;-72
2021/11/16 04:44:56;;;;;;;171.67;97.27;;;;;;;-3.90;100.00;102253.13;1666027;86;21049;-72
2021/11/16 04:47:29;;;;;;;115.47;59.47;;;;;;;-3.88;100.00;102248.26;1644178;86;21077;-72
2021/11/16 04:49:59;;;;;;;82.80;45.90;;;;;;;-3.87;100.00;102259.70;1662602;86;21057;-71
2021/11/16 04:55:21;;;;;;;69.53;41.03;;;;;;;-3.85;100.00;102267.16;1643959;86;21061;-73
2021/11/16 05:02:54;;;;;;;38.27;19.60;;;;;;;-3.84;100.00;102273.73;1666116;86;21090;-72
2021/11/16 05:05:22;;;;;;;26.30;12.57;;;;;;;-3.80;100.00;102276.34;1666081;86;21088;-68
2021/11/16 05:07:55;;;;;;;21.43;9.07;;;;;;;-3.78;100.00;102269.25;1643764;86;21093;-68
2021/11/16 05:10:23;;;;;;;20.47;8.00;;;;;;;-3.77;100.00;102273.63;1643771;86;21085;-69
2021/11/16 05:12:51;;;;;;;28.73;10.73;;;;;;;-3.75;100.00;102278.44;1643505;86;21065;-70
2021/11/16 05:15:20;;;;;;;25.87;8.90;;;;;;;-3.71;100.00;102279.70;1682249;85;21026;-68
2021/11/16 05:17:48;;;;;;;21.17;7.20;;;;;;;-3.69;100.00;102280.54;1682227;85;21046;-69
2021/11/16 05:20:16;;;;;;;22.83;8.23;;;;;;;-3.67;100.00;102276.55;1663115;85;21049;-69
2021/11/16 05:22:43;;;;;;;24.60;8.93;;;;;;;-3.65;100.00;102280.94;1663083;85;21050;-70
2021/11/16 05:25:10;;;;;;;31.63;9.70;;;;;;;-3.60;100.00;102283.95;1663057;85;21053;-73
2021/11/16 05:27:39;;;;;;;42.43;11.13;;;;;;;-3.54;100.00;102288.69;1682284;85;21091;-70
2021/11/16 05:30:09;;;;;;;53.43;10.00;;;;;;;-3.41;100.00;102276.58;1682590;84;20998;-70
2021/11/16 05:32:36;;;;;;;22.23;7.27;;;;;;;-3.15;100.00;102286.67;1682411;85;21558;-71
2021/11/16 05:35:05;;;;;;;23.93;7.83;;;;;;;-2.84;100.00;102299.36;1681245;84;21577;-68
2021/11/16 05:37:32;;;;;;;20.43;6.57;;;;;;;-2.61;100.00;102301.55;1665121;85;21089;-70
2021/11/16 05:39:59;;;;;;;30.07;8.13;;;;;;;-2.53;100.00;102293.86;1665368;85;21084;-70
2021/11/16 05:42:26;;;;;;;27.53;8.60;;;;;;;-2.49;100.00;102294.67;1685222;85;21025;-68
2021/11/16 05:44:53;;;;;;;31.60;9.83;;;;;;;-2.48;100.00;102303.02;1684757;85;21089;-70
2021/11/16 05:47:20;;;;;;;48.80;13.70;;;;;;;-2.47;100.00;102302.13;1684574;85;21058;-70
2021/11/16 05:49:48;;;;;;;48.70;18.43;;;;;;;-2.49;100.00;102294.21;1663223;85;21132;-70
2021/11/16 05:52:17;;;;;;;46.13;12.20;;;;;;;-2.51;100.00;102302.65;1663281;85;21082;-70
2021/11/16 05:54:44;;;;;;;49.90;12.43;;;;;;;-2.53;100.00;102307.11;1686725;84;21502;-69
2021/11/16 05:57:11;;;;;;;39.17;12.43;;;;;;;-2.54;100.00;102305.81;1663376;84;21033;-70
2021/11/16 05:59:38;;;;;;;31.00;8.73;;;;;;;-2.54;100.00;102301.37;1634817;85;21058;-70
2021/11/16 06:02:09;;;;;;;57.30;12.37;;;;;;;-2.52;100.00;102310.16;1668851;86;21037;-69
2021/11/16 06:04:36;;;;;;;38.83;8.33;;;;;;;-2.47;100.00;102319.36;1629630;87;21077;-71
2021/11/16 06:07:04;;;;;;;27.13;6.80;;;;;;;-2.42;100.00;102317.48;1603883;87;21370;-70
2021/11/16 06:09:33;;;;;;;17.57;6.00;;;;;;;-2.37;100.00;102310.78;1593546;89;21021;-71
2021/11/16 06:12:02;;;;;;;20.40;8.03;;;;;;;-2.31;100.00;102314.14;1577463;89;21070;-71
2021/11/16 06:14:29;;;;;;;24.10;7.53;;;;;;;-2.24;100.00;102320.19;1576004;90;21088;-70
2021/11/16 06:16:58;;;;;;;20.63;7.00;;;;;;;-2.17;100.00;102308.55;1608614;87;21117;-72
2021/11/16 06:19:26;;;;;;;25.20;7.37;;;;;;;-2.11;100.00;102304.89;1595883;88;21630;-70
2021/11/16 06:21:53;;;;;;;18.47;6.70;;;;;;;-2.07;100.00;102318.52;1605634;88;21077;-71
2021/11/16 06:24:20;;;;;;;12.23;5.10;;;;;;;-2.03;100.00;102321.97;1609963;88;21010;-71
2021/11/16 06:26:47;;;;;;;19.00;6.13;;;;;;;-1.98;100.00;102313.00;1606260;88;21080;-70
2021/11/16 06:29:13;;;;;;;35.70;12.67;;;;;;;-1.92;100.00;102317.28;1606959;88;21002;-69
2021/11/16 06:31:41;;;;;;;23.17;8.83;;;;;;;-1.87;100.00;102320.70;1604459;88;21029;-71
2021/11/16 06:34:09;;;;;;;17.30;7.33;;;;;;;-1.80;100.00;102317.00;1599557;89;21673;-70
2021/11/16 06:36:40;;;;;;;20.77;9.40;;;;;;;-1.72;100.00;102318.14;1617677;87;21053;-70
2021/11/16 06:39:11;;;;;;;15.40;5.00;;;;;;;-1.63;100.00;102313.97;1588872;89;21026;-65
2021/11/16 06:41:38;;;;;;;9.67;4.53;;;;;;;-1.52;100.00;102309.72;1615234;87;21081;-67
2021/11/16 06:44:07;;;;;;;14.03;6.77;;;;;;;-1.44;100.00;102310.84;1619836;87;21088;-65
2021/11/16 06:46:34;;;;;;;21.10;8.33;;;;;;;-1.35;100.00;102306.20;1599700;88;21113;-66
2021/11/16 06:49:02;;;;;;;19.57;7.97;;;;;;;-1.22;100.00;102309.83;1607096;89;21585;-65
2021/11/16 06:51:34;;;;;;;15.00;6.90;;;;;;;-1.06;100.00;102319.16;1631964;87;21074;-67
2021/11/16 06:53:59;;;;;;;14.50;6.80;;;;;;;-0.89;100.00;102314.71;1638584;86;21077;-70
2021/11/16 06:56:26;;;;;;;11.03;5.33;;;;;;;-0.64;100.00;102314.03;1635251;86;21040;-72
2021/11/16 06:58:54;;;;;;;12.07;5.20;;;;;;;-0.42;100.00;102315.17;1621586;87;21070;-70
2021/11/16 07:01:22;;;;;;;7.40;4.37;;;;;;;-0.23;100.00;102318.61;1647989;86;21055;-70
2021/11/16 07:03:50;;;;;;;12.30;4.60;;;;;;;-0.06;100.00;102319.44;1667356;83;21505;-72
2021/11/16 07:06:18;;;;;;;12.80;5.07;;;;;;;0.09;100.00;102308.34;1685065;83;21141;-71
2021/11/16 07:08:46;;;;;;;20.70;5.37;;;;;;;0.21;100.00;102300.41;1677945;84;21076;-69
2021/11/16 07:11:20;;;;;;;17.63;5.00;;;;;;;0.36;100.00;102298.59;1657094;86;21089;-72
2021/11/16 07:14:04;;;;;;;21.20;8.00;;;;;;;0.50;100.00;102297.28;1657328;84;21016;-73
2021/11/16 07:16:37;;;;;;;27.25;11.45;;;;;;;0.68;100.00;102286.00;1676488;84;21004;-72
2021/11/16 07:19:08;;;;;;;27.50;11.90;;;;;;;0.91;100.00;102293.19;1629535;86;21072;-71
2021/11/16 07:21:51;;;;;;;28.10;11.17;;;;;;;1.13;100.00;102295.98;1664596;86;21679;-72
2021/11/16 07:24:24;;;;;;;14.73;6.12;;;;;;;1.28;100.00;102285.22;1628125;86;21214;-72
2021/11/16 07:27:00;;;;;;;20.82;8.53;;;;;;;1.49;100.00;102278.23;1627269;86;21030;-70
2021/11/16 07:29:38;;;;;;;14.77;5.70;;;;;;;1.63;100.00;102280.38;1618205;87;21051;-69
2021/11/16 07:32:12;;;;;;;17.03;6.37;;;;;;;1.76;100.00;102278.09;1580567;91;21640;-69
2021/11/16 07:34:38;;;;;;;;;;;;;;;1.87;100.00;102265.20;1549632;91;21176;-71
2021/11/16 07:37:11;;;;;;;16.90;5.73;;;;;;;2.00;100.00;102270.05;1542426;93;20128;-71
2021/11/16 07:39:52;;;;;;;16.82;5.60;;;;;;;2.15;100.00;102271.25;1536533;92;21120;-71
2021/11/16 07:42:21;;;;;;;17.33;5.80;;;;;;;2.27;100.00;102277.43;1532688;91;21128;-71
2021/11/16 07:45:14;;;;;;;19.77;5.97;;;;;;;2.41;100.00;102276.39;1542542;91;21081;-74
2021/11/16 07:47:49;;;;;;;19.30;5.35;;;;;;;2.57;100.00;102275.77;1539235;93;21099;-71
2021/11/16 07:50:45;;;;;;;12.87;4.97;;;;;;;2.81;100.00;102272.02;1568969;91;21107;-72
2021/11/16 07:53:25;;;;;;;8.47;4.20;;;;;;;2.96;100.00;102266.97;1538296;93;21056;-74
2021/11/16 07:56:05;;;;;;;7.50;3.63;;;;;;;3.00;100.00;102277.91;1537275;93;21045;-68
2021/11/16 07:58:43;;;;;;;13.00;4.80;;;;;;;3.03;100.00;102274.64;1541574;92;21059;-69
2021/11/16 08:01:16;;;;;;;12.53;4.57;;;;;;;3.06;100.00;102272.76;1488321;95;21040;-72
2021/11/16 08:03:52;;;;;;;12.03;4.83;;;;;;;3.16;100.00;102286.98;1495338;94;21116;-72
2021/11/16 08:06:28;;;;;;;10.07;4.00;;;;;;;3.32;100.00;102286.31;1490845;93;21120;-72
2021/11/16 08:14:09;;;;;;;9.00;3.50;;;;;;;3.72;100.00;102274.64;1478669;96;21089;-74
2021/11/16 08:16:50;;;;;;;13.03;3.70;;;;;;;3.76;100.00;102272.69;1495185;95;21582;-72
2021/11/16 08:20:14;;;;;;;5.47;3.00;;;;;;;3.83;100.00;102271.46;1402747;100;22629;-74
2021/11/16 08:22:42;;;;;;;11.03;4.73;;;;;;;3.97;100.00;102261.44;1420978;100;21609;-68
2021/11/16 08:25:10;;;;;;;14.23;5.47;;;;;;;4.08;100.00;102266.27;1409164;102;21151;-69
2021/11/16 08:27:40;;;;;;;7.50;3.67;;;;;;;4.13;100.00;102251.71;1406820;102;21112;-75
2021/11/16 08:30:14;;;;;;;11.90;3.83;;;;;;;4.21;100.00;102248.64;1408010;100;21604;-70
2021/11/16 08:32:44;;;;;;;6.33;3.33;;;;;;;4.21;100.00;102247.78;1355587;103;21144;-70
2021/11/16 08:35:20;;;;;;;20.53;4.87;;;;;;;4.27;100.00;102246.16;1356076;104;21212;-67
2021/11/16 08:37:48;;;;;;;9.17;4.33;;;;;;;4.27;100.00;102237.64;1385019;103;21628;-68
2021/11/16 08:40:20;;;;;;;7.70;3.20;;;;;;;4.39;100.00;102241.50;1356274;104;21181;-68
2021/11/16 08:45:44;;;;;;;9.23;4.20;;;;;;;4.48;100.00;102233.47;1347862;105;21175;-73
2021/11/16 08:48:11;;;;;;;10.70;3.90;;;;;;;4.57;100.00;102230.34;1353895;105;21185;-73
2021/11/16 08:50:43;;;;;;;6.90;2.97;;;;;;;4.52;100.00;102224.35;1349769;105;21181;-73
2021/11/16 08:53:14;;;;;;;5.47;2.40;;;;;;;4.46;100.00;102230.01;1350316;105;21218;-75
2021/11/16 08:55:42;;;;;;;9.53;3.20;;;;;;;4.50;100.00;102220.89;1353308;104;21676;-70
2021/11/16 08:58:13;;;;;;;5.00;3.13;;;;;;;4.54;100.00;102210.40;1365904;105;21210;-72
2021/11/16 09:00:46;;;;;;;6.57;3.10;;;;;;;4.57;100.00;102206.23;1364717;104;21159;-67
2021/11/16 09:03:20;;;;;;;;;;;;;;;4.61;100.00;102202.92;1361337;105;21100;-68
2021/11/16 09:05:49;;;;;;;8.85;3.72;;;;;;;4.71;100.00;102198.79;1359911;105;20174;-71
2021/11/16 09:08:25;;;;;;;6.90;3.73;;;;;;;4.77;100.00;102197.14;1361329;104;21131;-67
2021/11/16 09:10:55;;;;;;;8.97;3.33;;;;;;;4.88;100.00;102191.22;1427861;98;21056;-68
2021/11/16 09:13:24;;;;;;;14.03;5.30;;;;;;;4.93;100.00;102199.88;1464848;96;21178;-67
2021/11/16 09:15:56;;;;;;;7.57;3.40;;;;;;;5.00;100.00;102193.73;1464036;96;21149;-68
2021/11/16 09:18:38;;;;;;;9.08;4.55;;;;;;;5.05;100.00;102187.16;1467132;96;21095;-67
2021/11/16 09:21:12;;;;;;;8.47;3.83;;;;;;;5.13;100.00;102183.59;1471501;96;21608;-70
2021/11/16 09:23:44;;;;;;;19.47;5.93;;;;;;;5.24;100.00;102181.67;1418504;100;21817;-72
2021/11/16 09:26:20;;;;;;;11.63;5.10;;;;;;;5.22;100.00;102174.16;1419339;100;21127;-74
2021/11/16 09:29:09;;;;;;;33.40;10.23;;;;;;;5.16;100.00;102171.83;1422344;99;21185;-77
2021/11/16 09:31:41;;;;;;;7.73;2.90;;;;;;;5.25;100.00;102167.77;1418162;101;21268;-71
2021/11/16 09:34:20;;;;;;;5.90;2.90;;;;;;;5.30;100.00;102164.36;1418647;101;22395;-72
2021/11/16 09:36:58;;;;;;;18.63;5.53;;;;;;;5.32;100.00;102162.45;1447840;97;21124;-73
2021/11/16 09:39:35;;;;;;;9.63;3.93;;;;;;;5.31;100.00;102158.03;1475871;96;22337;-73
2021/11/16 09:42:06;;;;;;;13.70;4.93;;;;;;;5.42;100.00;102158.77;1491161;94;21145;-72
2021/11/16 09:44:42;;;;;;;13.62;4.72;;;;;;;5.51;100.00;102152.91;1513527;95;21183;-73
2021/11/16 09:47:16;;;;;;;14.15;4.37;;;;;;;5.57;100.00;102157.92;1479288;97;21120;-74
2021/11/16 09:49:54;;;;;;;9.70;4.13;;;;;;;5.61;100.00;102148.77;1504312;95;21165;-74
2021/11/16 09:52:28;;;;;;;14.57;5.17;;;;;;;5.59;100.00;102147.95;1464975;96;21198;-74
2021/11/16 09:55:10;;;;;;;114.50;19.90;;;;;;;5.61;100.00;102143.39;1438591;98;21222;-72
2021/11/16 09:57:47;;;;;;;10.97;4.30;;;;;;;5.57;99.58;102143.64;1438820;98;21115;-72
2021/11/16 10:00:32;;;;;;;12.50;3.33;;;;;;;5.42;100.00;102154.75;1438315;98;21176;-73
2021/11/16 10:03:13;;;;;;;7.97;3.37;;;;;;;5.41;100.00;102150.35;1438794;98;21687;-74
2021/11/16 10:05:48;;;;;;;4.80;2.53;;;;;;;5.39;99.97;102150.92;1417251;98;22367;-74
2021/11/16 10:08:17;;;;;;;9.33;3.00;;;;;;;5.23;99.01;102146.39;1451616;96;21129;-73
2021/11/16 10:10:48;;;;;;;16.17;4.73;;;;;;;5.23;100.00;102141.03;1458061;96;21142;-72
2021/11/16 10:13:19;;;;;;;8.57;3.47;;;;;;;5.32;100.00;102132.47;1456491;98;21664;-74
2021/11/16 10:15:48;;;;;;;8.50;3.83;;;;;;;5.39;100.00;102133.48;1462845;96;21597;-74
2021/11/16 10:18:16;;;;;;;7.43;3.50;;;;;;;5.38;100.00;102131.73;1457092;96;21610;-74
2021/11/16 10:20:45;;;;;;;8.50;4.00;;;;;;;5.35;100.00;102124.73;1486797;94;21131;-73
2021/11/16 10:23:17;;;;;;;9.17;3.60;;;;;;;5.32;100.00;102124.90;1516429;93;21100;-75
2021/11/16 10:25:53;;;;;;;14.33;4.50;;;;;;;5.41;100.00;102121.70;1457867;97;21129;-76
2021/11/16 10:28:21;;;;;;;15.17;4.40;;;;;;;5.50;100.00;102106.89;1444490;97;21148;-76
2021/11/16 10:30:49;;;;;;;23.37;5.50;;;;;;;5.53;100.00;102109.89;1433140;99;21160;-74
2021/11/16 10:33:22;;;;;;;22.40;8.70;;;;;;;5.61;100.00;102103.59;1417280;100;21091;-74
2021/11/16 10:36:02;;;;;;;16.60;5.10;;;;;;;5.71;100.00;102097.59;1438429;96;21245;-74
2021/11/16 10:38:33;;;;;;;7.77;3.73;;;;;;;5.82;100.00;102100.14;1446551;97;21125;-77
2021/11/16 10:41:04;;;;;;;25.93;6.77;;;;;;;5.87;99.55;102090.86;1443058;99;21157;-73
2021/11/16 10:43:40;;;;;;;12.17;5.00;;;;;;;5.89;99.93;102085.40;1444078;99;21676;-75
2021/11/16 10:46:08;;;;;;;16.50;5.37;;;;;;;5.92;99.05;102077.66;1444816;99;21179;-74
2021/11/16 10:48:39;;;;;;;13.30;4.93;;;;;;;5.89;98.87;102083.57;1449899;97;21138;-72
2021/11/16 10:51:11;;;;;;;11.90;4.77;;;;;;;5.89;99.04;102078.20;1470874;95;21037;-74
2021/11/16 10:53:40;;;;;;;12.00;4.40;;;;;;;5.94;98.72;102074.40;1470373;97;21704;-73
2021/11/16 10:56:09;;;;;;;11.73;4.40;;;;;;;6.00;98.76;102075.39;1474649;95;21124;-73
2021/11/16 10:58:39;;;;;;;14.30;4.50;;;;;;;6.03;97.76;102072.05;1476249;95;21663;-74
2021/11/16 11:01:16;;;;;;;13.03;4.33;;;;;;;6.11;98.95;102058.17;1476395;97;21113;-74
2021/11/16 11:03:50;;;;;;;8.57;3.47;;;;;;;6.16;97.48;102060.11;1466852;97;21153;-72
2021/11/16 11:06:35;;;;;;;9.40;3.37;;;;;;;6.12;95.29;102060.37;1477242;96;21302;-71
2021/11/16 11:09:06;;;;;;;37.80;8.90;;;;;;;5.92;92.53;102057.52;1475503;96;21140;-73
2021/11/16 11:11:36;;;;;;;556.63;197.13;;;;;;;5.65;91.21;102051.48;1450471;98;21090;-72
2021/11/16 11:14:16;;;;;;;285.13;100.00;;;;;;;5.40;91.09;102049.34;1473003;96;21644;-71
2021/11/16 11:16:57;;;;;;;83.70;29.37;;;;;;;5.13;93.43;102044.14;1475946;96;21203;-73
2021/11/16 11:19:30;;;;;;;22.23;7.90;;;;;;;5.05;96.33;102045.04;1465599;97;21270;-74
2021/11/16 11:22:03;;;;;;;11.48;4.67;;;;;;;5.08;99.12;102049.35;1473353;94;21100;-73
2021/11/16 11:24:49;;;;;;;10.00;3.77;;;;;;;5.16;100.00;102028.34;1571259;86;21127;-72
2021/11/16 11:29:57;;;;;;;27.97;11.53;;;;;;;5.47;100.00;102039.98;1626510;86;21093;-72
2021/11/16 11:32:26;;;;;;;28.00;7.20;;;;;;;5.53;99.89;102032.08;1628695;86;21654;-74
2021/11/16 11:35:13;;;;;;;11.13;3.87;;;;;;;5.36;98.80;102027.67;1617540;87;21145;-74
2021/11/16 11:37:56;;;;;;;8.90;3.97;;;;;;;5.35;100.00;102025.48;1570857;90;21558;-73
2021/11/16 11:40:33;;;;;;;32.63;14.90;;;;;;;5.45;100.00;102016.41;1562689;90;21790;-77
2021/11/16 11:43:04;;;;;;;33.37;14.90;;;;;;;5.60;100.00;102017.34;1570174;90;21088;-75
2021/11/16 11:45:42;;;;;;;31.00;14.63;;;;;;;5.70;100.00;102011.33;1562585;90;21067;-76
2021/11/16 11:48:23;;;;;;;19.97;7.80;;;;;;;5.80;100.00;102002.72;1553573;92;21169;-74